Time;durP1;ratioP1;P1;durP2;ratioP2;P2;SDS_P1;SDS_P2;PMS_P1;PMS_P2;Temp;Humidity;BMP_temperature;BMP_pressure;BME280_temperature;BME280_humidity;BME280_pressure;Samples;Min_cycle;Max_cycle;Signal;HPM_P1;HPM_P2
2022/12/01 00:01:28;;;;;;;27.53;22.37;;;7.20;99.90;;;;;;5024841;28;20046;-78
2022/12/01 00:03:54;;;;;;;31.90;23.90;;;7.20;99.90;;;;;;5020951;28;20041;-79
2022/12/01 00:06:21;;;;;;;34.63;23.23;;;7.20;99.90;;;;;;5017714;28;20373;-78
2022/12/01 00:11:37;;;;;;;33.57;24.40;;;7.20;99.90;;;;;;4984733;28;20047;-78
2022/12/01 00:14:04;;;;;;;29.60;22.53;;;7.20;99.90;;;;;;4972213;28;20053;-78
2022/12/01 00:16:30;;;;;;;35.13;25.90;;;7.20;99.90;;;;;;4982648;28;20049;-78
2022/12/01 00:18:56;;;;;;;29.03;22.53;;;7.30;99.90;;;;;;4989881;28;20503;-78
2022/12/01 00:21:23;;;;;;;32.20;24.23;;;7.30;99.90;;;;;;4988125;28;20045;-78
2022/12/01 00:23:50;;;;;;;26.13;20.97;;;7.30;99.90;;;;;;4975776;28;20233;-78
2022/12/01 00:26:16;;;;;;;32.10;23.70;;;7.20;99.90;;;;;;4971749;28;20058;-79
2022/12/01 00:28:42;;;;;;;33.13;24.70;;;7.20;99.90;;;;;;5001888;28;20101;-78
2022/12/01 00:31:09;;;;;;;32.20;24.83;;;7.20;99.90;;;;;;4974331;28;20041;-78
2022/12/01 00:33:35;;;;;;;30.23;23.93;;;7.20;99.90;;;;;;4987471;28;20038;-79
2022/12/01 00:36:01;;;;;;;33.57;23.97;;;7.20;99.90;;;;;;4973208;28;20043;-78
2022/12/01 00:38:28;;;;;;;34.53;24.87;;;7.20;99.90;;;;;;4988913;28;20439;-79
2022/12/01 00:40:54;;;;;;;31.83;24.50;;;7.20;99.90;;;;;;4991115;28;20038;-79
2022/12/01 00:43:20;;;;;;;22.53;19.30;;;7.30;99.90;;;;;;4990196;28;20522;-79
2022/12/01 00:45:46;;;;;;;34.40;24.07;;;7.30;99.90;;;;;;4972987;28;20046;-79
2022/12/01 00:48:12;;;;;;;26.43;21.37;;;7.30;99.90;;;;;;4989204;28;20050;-78
2022/12/01 00:50:38;;;;;;;28.87;23.20;;;7.30;99.90;;;;;;5006795;28;20042;-78
2022/12/01 00:53:04;;;;;;;33.77;25.47;;;7.30;99.90;;;;;;4989991;28;20376;-78
2022/12/01 00:55:30;;;;;;;32.10;22.73;;;7.30;99.90;;;;;;4983300;28;20046;-78
2022/12/01 00:57:56;;;;;;;30.67;23.53;;;7.30;99.90;;;;;;4990556;28;20058;-78
2022/12/01 01:00:23;;;;;;;28.30;22.87;;;7.30;99.90;;;;;;5005168;28;20065;-78
2022/12/01 01:02:49;;;;;;;35.08;23.10;;;7.30;99.90;;;;;;5016997;28;20480;-79
2022/12/01 01:05:15;;;;;;;19.83;17.37;;;7.40;99.90;;;;;;5008061;28;20041;-78
2022/12/01 01:07:41;;;;;;;29.23;21.77;;;7.40;99.90;;;;;;5023783;28;20038;-78
2022/12/01 01:10:07;;;;;;;32.47;21.67;;;7.40;99.90;;;;;;5008235;28;20411;-78
2022/12/01 01:12:33;;;;;;;28.27;21.13;;;7.40;99.90;;;;;;4989716;28;20065;-79
2022/12/01 01:14:59;;;;;;;32.07;22.60;;;7.40;99.90;;;;;;4985934;28;20031;-78
2022/12/01 01:17:25;;;;;;;30.83;22.65;;;7.40;99.90;;;;;;5004644;28;20426;-78
2022/12/01 01:19:52;;;;;;;31.53;23.00;;;7.40;99.90;;;;;;5008917;28;20034;-79
2022/12/01 01:22:18;;;;;;;28.67;23.13;;;7.40;99.90;;;;;;5005207;28;20174;-78
2022/12/01 01:24:44;;;;;;;32.07;23.47;;;7.40;99.90;;;;;;4997482;28;20034;-78
2022/12/01 01:27:10;;;;;;;30.40;21.70;;;7.40;99.90;;;;;;4987369;28;20045;-79
2022/12/01 01:29:36;;;;;;;33.43;22.87;;;7.40;99.90;;;;;;5024262;28;20391;-78
2022/12/01 01:32:03;;;;;;;28.30;22.17;;;7.40;99.90;;;;;;4989719;28;20081;-78
2022/12/01 01:34:29;;;;;;;25.10;21.55;;;7.30;99.90;;;;;;4974857;28;20051;-79
2022/12/01 01:36:55;;;;;;;30.07;22.80;;;7.20;99.90;;;;;;5008611;28;20050;-78
2022/12/01 01:39:21;;;;;;;24.43;19.33;;;7.20;99.90;;;;;;5011171;28;20042;-78
2022/12/01 01:41:47;;;;;;;29.80;21.63;;;7.20;99.90;;;;;;4993795;28;20042;-79
2022/12/01 01:44:46;;;;;;;27.03;21.50;;;7.10;99.90;;;;;;4993044;28;20043;-78
2022/12/01 01:47:12;;;;;;;34.57;22.13;;;7.10;99.90;;;;;;4976634;28;20049;-78
2022/12/01 01:49:38;;;;;;;30.30;23.33;;;7.10;99.90;;;;;;5010110;28;20042;-79
2022/12/01 01:52:04;;;;;;;31.90;23.40;;;7.10;99.90;;;;;;4962256;28;20049;-78
2022/12/01 01:54:34;;;;;;;31.97;22.63;;;7.10;99.90;;;;;;4980109;28;20500;-78
2022/12/01 01:57:00;;;;;;;27.70;22.43;;;7.10;99.90;;;;;;5009235;28;20098;-78
2022/12/01 01:59:32;;;;;;;30.97;23.73;;;7.00;99.90;;;;;;5010135;28;20038;-79
2022/12/01 02:02:04;;;;;;;30.13;22.83;;;7.00;99.90;;;;;;4967857;28;20031;-78
2022/12/01 02:04:33;;;;;;;29.13;22.03;;;6.90;99.90;;;;;;5004818;28;20054;-79
2022/12/01 02:06:59;;;;;;;23.43;17.77;;;6.80;99.90;;;;;;4994407;28;20026;-78
2022/12/01 02:09:25;;;;;;;25.43;18.70;;;6.80;99.90;;;;;;5027757;28;20467;-78
2022/12/01 02:12:20;;;;;;;30.17;22.27;;;6.70;99.90;;;;;;5010498;28;20034;-78
2022/12/01 02:15:11;;;;;;;34.40;22.90;;;6.70;99.90;;;;;;5009679;28;20495;-79
2022/12/01 02:18:00;;;;;;;30.20;22.25;;;6.70;99.90;;;;;;4989185;28;20450;-78
2022/12/01 02:20:28;;;;;;;30.27;23.30;;;6.70;99.90;;;;;;4993490;28;20031;-78
2022/12/01 02:23:32;;;;;;;30.60;22.97;;;6.70;99.90;;;;;;4994646;28;20045;-79
2022/12/01 02:26:17;;;;;;;31.93;23.57;;;6.60;99.90;;;;;;4994554;28;20050;-78
2022/12/01 02:29:22;;;;;;;30.73;23.43;;;6.60;99.90;;;;;;5006892;28;20043;-79
2022/12/01 02:31:57;;;;;;;31.13;23.03;;;6.60;99.90;;;;;;4965540;28;20395;-79
2022/12/01 02:34:34;;;;;;;31.70;23.27;;;6.60;99.90;;;;;;4989344;28;20506;-78
2022/12/01 02:37:25;;;;;;;34.00;23.20;;;6.50;99.90;;;;;;4996607;28;20399;-78
2022/12/01 02:39:57;;;;;;;30.03;22.13;;;6.50;99.90;;;;;;4964584;28;20053;-79
2022/12/01 02:42:48;;;;;;;;;;;6.50;99.90;;;;;;4963382;28;20606;-78
2022/12/01 02:45:41;;;;;;;33.47;23.33;;;6.50;99.90;;;;;;5011915;28;19920;-78
2022/12/01 02:48:14;;;;;;;30.73;23.53;;;6.50;99.90;;;;;;4986868;28;20049;-78
2022/12/01 02:50:40;;;;;;;30.73;19.17;;;6.40;99.90;;;;;;4980384;28;20042;-78
2022/12/01 02:53:07;;;;;;;36.13;23.90;;;6.30;99.90;;;;;;4976109;28;20038;-79
2022/12/01 02:55:33;;;;;;;29.07;20.93;;;6.30;99.90;;;;;;4988120;28;20042;-78
2022/12/01 02:57:59;;;;;;;32.00;21.87;;;6.20;99.90;;;;;;4978201;28;20053;-78
2022/12/01 03:00:25;;;;;;;28.70;21.67;;;6.20;99.90;;;;;;4978032;28;20375;-78
2022/12/01 03:03:22;;;;;;;29.80;20.63;;;6.20;99.90;;;;;;4989491;28;20065;-78
2022/12/01 03:05:55;;;;;;;32.93;22.70;;;6.20;99.90;;;;;;4974747;28;20037;-79
2022/12/01 03:08:44;;;;;;;32.67;22.93;;;6.10;99.90;;;;;;4968852;28;20042;-79
2022/12/01 03:11:25;;;;;;;34.90;22.93;;;6.10;99.90;;;;;;4990427;28;20034;-79
2022/12/01 03:14:02;;;;;;;38.58;23.80;;;6.00;99.90;;;;;;4990520;28;20030;-78
2022/12/01 03:16:32;;;;;;;32.93;24.37;;;6.10;99.90;;;;;;4992242;28;20038;-78
2022/12/01 03:19:28;;;;;;;34.28;24.10;;;6.00;99.90;;;;;;4978110;28;20042;-79
2022/12/01 03:22:03;;;;;;;33.83;24.43;;;6.00;99.90;;;;;;5007955;28;20038;-79
2022/12/01 03:24:31;;;;;;;36.43;25.63;;;5.90;99.90;;;;;;5004141;28;20034;-79
2022/12/01 03:26:58;;;;;;;36.60;25.23;;;5.90;99.90;;;;;;4987679;28;20038;-79
2022/12/01 03:29:27;;;;;;;32.47;23.97;;;5.90;99.90;;;;;;4959841;28;20547;-79
2022/12/01 03:31:55;;;;;;;33.47;24.97;;;5.90;99.90;;;;;;4985704;28;20042;-79
2022/12/01 03:34:22;;;;;;;35.90;23.33;;;5.90;99.90;;;;;;4965509;28;20022;-79
2022/12/01 03:36:56;;;;;;;39.00;26.77;;;5.90;99.90;;;;;;4993260;28;20030;-79
2022/12/01 03:39:25;;;;;;;37.80;26.77;;;5.80;99.90;;;;;;4993275;28;20050;-78
2022/12/01 03:41:56;;;;;;;35.47;25.77;;;5.80;99.90;;;;;;5022846;28;20029;-78
2022/12/01 03:44:30;;;;;;;34.03;24.58;;;5.80;99.90;;;;;;4972685;28;20380;-79
2022/12/01 03:47:00;;;;;;;34.40;23.17;;;5.80;99.90;;;;;;4960940;28;20042;-79
2022/12/01 03:49:26;;;;;;;36.47;23.93;;;5.80;99.90;;;;;;5024246;28;20037;-79
2022/12/01 03:52:16;;;;;;;40.83;26.17;;;5.70;99.90;;;;;;5008760;28;20383;-78
2022/12/01 03:55:00;;;;;;;38.70;24.63;;;5.70;99.90;;;;;;4994847;28;20046;-78
2022/12/01 03:57:30;;;;;;;35.33;24.10;;;5.70;99.90;;;;;;4999836;28;20034;-78
2022/12/01 03:59:56;;;;;;;34.30;24.37;;;5.70;99.90;;;;;;5006807;28;20035;-79
2022/12/01 04:02:26;;;;;;;40.40;25.80;;;5.70;99.90;;;;;;4981953;28;20039;-79
2022/12/01 04:04:52;;;;;;;37.33;26.60;;;5.70;99.90;;;;;;5007718;28;20373;-79
2022/12/01 04:07:19;;;;;;;38.37;27.23;;;5.70;99.90;;;;;;5001484;28;20042;-78
2022/12/01 04:09:45;;;;;;;38.13;27.00;;;5.70;99.90;;;;;;4998759;28;20043;-78
2022/12/01 04:12:33;;;;;;;38.03;26.20;;;5.70;99.90;;;;;;5006204;28;20038;-79
2022/12/01 04:15:07;;;;;;;41.30;25.77;;;5.70;99.90;;;;;;5001182;28;20023;-78
2022/12/01 04:17:34;;;;;;;36.47;25.20;;;5.70;99.90;;;;;;4975370;28;20043;-78
2022/12/01 04:20:00;;;;;;;39.87;25.20;;;5.80;99.90;;;;;;4965317;28;20047;-78
2022/12/01 04:22:26;;;;;;;40.33;26.67;;;5.80;99.90;;;;;;4984901;28;20038;-78
2022/12/01 04:24:52;;;;;;;35.70;25.40;;;5.80;99.90;;;;;;4972843;28;20034;-79
2022/12/01 04:27:18;;;;;;;40.97;25.63;;;5.80;99.90;;;;;;4961674;28;20038;-79
2022/12/01 04:29:44;;;;;;;39.07;25.27;;;5.60;99.90;;;;;;4992432;28;20027;-78
2022/12/01 04:32:11;;;;;;;40.23;25.13;;;5.50;99.90;;;;;;4988308;28;20034;-78
2022/12/01 04:34:37;;;;;;;32.70;23.90;;;5.50;99.90;;;;;;5006112;28;20037;-78
2022/12/01 04:37:03;;;;;;;41.20;24.67;;;5.30;99.90;;;;;;4992218;28;20444;-78
2022/12/01 04:39:29;;;;;;;40.40;25.23;;;5.40;99.90;;;;;;5008395;28;20034;-78
2022/12/01 04:41:55;;;;;;;46.97;23.97;;;5.40;99.90;;;;;;4991778;28;20046;-78
2022/12/01 04:44:21;;;;;;;37.33;25.87;;;5.40;99.90;;;;;;4989583;28;20030;-79
2022/12/01 04:46:49;;;;;;;38.73;24.33;;;5.40;99.90;;;;;;4983421;28;20030;-79
2022/12/01 04:49:15;;;;;;;34.50;22.50;;;5.30;99.90;;;;;;4967403;28;20041;-78
2022/12/01 04:51:41;;;;;;;39.90;24.87;;;5.30;99.90;;;;;;4990998;28;20038;-78
2022/12/01 04:54:07;;;;;;;33.33;23.60;;;5.20;99.90;;;;;;5024208;28;20031;-79
2022/12/01 04:56:33;;;;;;;41.53;24.97;;;5.30;99.90;;;;;;4966957;28;20349;-78
2022/12/01 04:58:59;;;;;;;38.43;24.80;;;5.20;99.90;;;;;;5022797;28;20062;-79
2022/12/01 05:01:26;;;;;;;41.60;24.43;;;5.20;99.90;;;;;;4989958;28;20042;-78
2022/12/01 05:03:52;;;;;;;35.50;24.27;;;5.20;99.90;;;;;;4958764;28;20419;-78
2022/12/01 05:06:23;;;;;;;42.67;23.40;;;5.20;99.90;;;;;;5024160;28;20532;-78
2022/12/01 05:08:49;;;;;;;39.93;22.10;;;5.10;99.90;;;;;;4991797;28;20038;-78
2022/12/01 05:11:16;;;;;;;36.73;23.13;;;5.10;99.90;;;;;;4979205;28;20031;-78
2022/12/01 05:13:43;;;;;;;35.77;23.60;;;5.10;99.90;;;;;;4991133;28;20038;-79
2022/12/01 05:16:20;;;;;;;35.27;23.50;;;5.20;99.90;;;;;;4977175;28;20033;-78
2022/12/01 05:18:48;;;;;;;35.20;22.77;;;5.10;99.90;;;;;;5002660;28;20500;-78
2022/12/01 05:21:14;;;;;;;41.87;24.00;;;5.10;99.90;;;;;;5023085;28;20399;-78
2022/12/01 05:23:40;;;;;;;52.00;25.57;;;5.10;99.90;;;;;;4956483;28;20049;-78
2022/12/01 05:26:07;;;;;;;33.00;21.10;;;5.10;99.90;;;;;;5003816;28;20080;-78
2022/12/01 05:28:33;;;;;;;39.33;25.33;;;5.10;99.90;;;;;;4988839;28;20463;-78
2022/12/01 05:30:59;;;;;;;39.23;25.27;;;5.10;99.90;;;;;;4957267;28;20034;-77
2022/12/01 05:33:25;;;;;;;34.53;22.27;;;5.10;99.90;;;;;;4972848;28;20046;-78
2022/12/01 05:35:51;;;;;;;38.93;24.93;;;5.10;99.90;;;;;;4972388;28;20369;-77
2022/12/01 05:38:18;;;;;;;40.93;26.03;;;5.00;99.90;;;;;;4988027;28;20038;-78
2022/12/01 05:40:51;;;;;;;37.40;25.40;;;5.00;99.90;;;;;;4972173;28;20046;-77
2022/12/01 05:43:18;;;;;;;40.07;25.83;;;5.00;99.90;;;;;;4970409;28;20038;-77
2022/12/01 05:45:44;;;;;;;39.47;25.47;;;5.00;99.90;;;;;;4988003;28;20030;-78
2022/12/01 05:48:10;;;;;;;41.83;26.33;;;5.00;99.90;;;;;;4988293;28;20046;-78
2022/12/01 05:50:37;;;;;;;39.90;25.33;;;5.00;99.90;;;;;;4987774;28;20030;-77
2022/12/01 05:53:03;;;;;;;43.97;25.57;;;5.00;99.90;;;;;;5004025;28;20038;-77
2022/12/01 05:55:31;;;;;;;39.60;25.97;;;4.90;99.90;;;;;;4996707;28;20038;-78
2022/12/01 05:57:57;;;;;;;45.57;25.93;;;4.90;99.90;;;;;;4991387;28;20494;-77
2022/12/01 06:00:23;;;;;;;44.00;26.13;;;5.00;99.90;;;;;;4955251;28;20031;-78
2022/12/01 06:02:49;;;;;;;44.93;27.13;;;5.00;99.90;;;;;;4956457;28;20396;-78
2022/12/01 06:05:15;;;;;;;46.40;29.07;;;5.00;99.90;;;;;;4956421;28;20039;-77
2022/12/01 06:07:42;;;;;;;45.40;27.13;;;5.00;99.90;;;;;;4973745;28;20038;-77
2022/12/01 06:10:08;;;;;;;48.37;27.17;;;4.90;99.90;;;;;;4985478;28;20475;-78
2022/12/01 06:12:35;;;;;;;42.93;24.90;;;4.90;99.90;;;;;;4991499;28;20256;-77
2022/12/01 06:15:01;;;;;;;40.90;24.80;;;4.80;99.90;;;;;;5007326;28;20030;-77
2022/12/01 06:17:28;;;;;;;44.70;27.33;;;4.70;99.90;;;;;;4990485;28;20037;-77
2022/12/01 06:19:54;;;;;;;41.80;25.93;;;4.70;99.90;;;;;;5013722;28;20049;-77
2022/12/01 06:22:20;;;;;;;45.07;25.80;;;4.80;99.90;;;;;;5024243;28;20030;-77
2022/12/01 06:24:46;;;;;;;23.47;20.47;;;4.70;99.90;;;;;;5011935;28;20034;-77
2022/12/01 06:27:12;;;;;;;35.43;24.17;;;4.60;99.90;;;;;;4978356;28;20045;-77
2022/12/01 06:29:38;;;;;;;38.97;24.80;;;4.50;99.90;;;;;;4994702;28;20034;-77
2022/12/01 06:32:04;;;;;;;42.67;26.67;;;4.40;99.90;;;;;;4995326;28;20037;-77
2022/12/01 06:34:31;;;;;;;28.93;21.90;;;4.40;99.90;;;;;;4995759;28;20460;-77
2022/12/01 06:36:57;;;;;;;45.07;26.43;;;4.50;99.90;;;;;;4995289;28;20037;-77
2022/12/01 06:39:23;;;;;;;41.60;26.57;;;4.40;99.90;;;;;;4992900;28;20448;-77
2022/12/01 06:41:49;;;;;;;46.50;26.77;;;4.40;99.90;;;;;;4962183;28;20034;-77
2022/12/01 06:44:15;;;;;;;63.97;26.67;;;4.40;99.90;;;;;;4962007;28;20034;-77
2022/12/01 06:46:41;;;;;;;21.23;17.70;;;4.40;99.90;;;;;;4993843;28;20396;-77
2022/12/01 06:49:11;;;;;;;43.10;25.40;;;4.30;99.90;;;;;;4969484;28;20039;-77
2022/12/01 06:51:37;;;;;;;27.53;21.80;;;4.20;99.90;;;;;;5009937;28;20038;-77
2022/12/01 06:54:03;;;;;;;50.67;30.37;;;4.20;99.90;;;;;;4994203;28;20042;-77
2022/12/01 06:56:30;;;;;;;47.77;29.53;;;4.20;99.90;;;;;;4981203;28;20041;-77
2022/12/01 06:58:56;;;;;;;30.53;23.93;;;4.30;99.90;;;;;;4976746;28;20065;-78
2022/12/01 07:01:22;;;;;;;53.87;34.77;;;4.30;99.90;;;;;;5009134;28;20046;-78
2022/12/01 07:03:48;;;;;;;53.37;32.40;;;4.30;99.90;;;;;;4993123;28;20075;-78
2022/12/01 07:06:15;;;;;;;68.00;35.77;;;4.30;99.90;;;;;;4977634;28;20384;-78
2022/12/01 07:08:41;;;;;;;62.53;34.40;;;4.30;99.90;;;;;;4976527;28;20387;-78
2022/12/01 07:11:08;;;;;;;54.47;35.30;;;4.40;99.90;;;;;;5007201;28;20042;-79
2022/12/01 07:13:35;;;;;;;59.93;35.50;;;4.40;99.90;;;;;;4998692;28;20247;-80
2022/12/01 07:16:01;;;;;;;66.97;36.60;;;4.40;99.90;;;;;;4975032;28;20034;-80
2022/12/01 07:18:28;;;;;;;64.23;35.53;;;4.50;99.90;;;;;;4986525;28;20394;-80
2022/12/01 07:21:00;;;;;;;63.40;36.87;;;4.50;99.90;;;;;;4958625;28;20050;-80
2022/12/01 07:23:27;;;;;;;52.63;32.27;;;4.50;99.90;;;;;;4992685;28;20056;-78
2022/12/01 07:26:07;;;;;;;72.77;39.03;;;4.50;99.90;;;;;;4993252;28;20054;-80
2022/12/01 07:28:33;;;;;;;64.70;37.07;;;4.50;99.90;;;;;;4975433;28;20445;-77
2022/12/01 07:31:18;;;;;;;75.87;40.93;;;4.60;99.90;;;;;;5013263;28;20643;-80
2022/12/01 07:33:44;;;;;;;70.53;39.73;;;4.60;99.90;;;;;;4992984;28;20039;-79
2022/12/01 07:36:12;;;;;;;71.40;40.53;;;4.60;99.90;;;;;;5005694;28;20041;-79
2022/12/01 07:38:39;;;;;;;72.37;39.97;;;4.60;99.90;;;;;;4960062;28;20050;-79
2022/12/01 07:41:12;;;;;;;77.37;41.50;;;4.60;99.90;;;;;;4993105;28;20053;-79
2022/12/01 07:43:39;;;;;;;90.60;42.10;;;4.60;99.90;;;;;;4994697;28;20041;-79
2022/12/01 07:46:09;;;;;;;80.73;43.83;;;4.70;99.90;;;;;;4991452;28;20054;-79
2022/12/01 07:48:37;;;;;;;68.95;42.78;;;4.70;99.90;;;;;;5007590;28;20030;-79
2022/12/01 07:51:04;;;;;;;83.27;41.93;;;4.70;99.90;;;;;;5009069;28;20045;-79
2022/12/01 07:53:31;;;;;;;74.23;41.37;;;4.70;99.90;;;;;;4990469;28;20399;-80
2022/12/01 07:55:57;;;;;;;66.57;37.67;;;4.70;99.90;;;;;;4983177;28;20038;-79
2022/12/01 07:58:23;;;;;;;76.53;43.80;;;4.70;99.90;;;;;;5012751;28;20475;-80
2022/12/01 08:00:49;;;;;;;72.33;40.47;;;4.70;99.90;;;;;;5010342;28;20026;-80
2022/12/01 08:03:15;;;;;;;78.17;40.17;;;4.80;99.90;;;;;;4991405;28;20053;-78
2022/12/01 08:05:42;;;;;;;77.30;41.70;;;4.80;99.90;;;;;;5008343;28;20030;-79
2022/12/01 08:08:08;;;;;;;74.53;40.27;;;4.80;99.90;;;;;;5008442;28;20385;-78
2022/12/01 08:10:34;;;;;;;70.80;39.93;;;4.90;99.90;;;;;;4993947;28;20031;-78
2022/12/01 08:13:00;;;;;;;72.50;40.67;;;4.90;99.90;;;;;;4965777;28;20491;-78
2022/12/01 08:15:26;;;;;;;69.70;42.77;;;5.00;99.90;;;;;;4978148;28;20503;-78
2022/12/01 08:17:52;;;;;;;69.90;39.03;;;5.30;99.90;;;;;;4974089;28;20030;-76
2022/12/01 08:20:20;;;;;;;66.93;37.30;;;5.20;99.90;;;;;;5001723;28;20053;-79
2022/12/01 08:22:46;;;;;;;56.67;34.13;;;5.20;99.90;;;;;;5008509;28;20063;-79
2022/12/01 08:25:12;;;;;;;52.10;31.87;;;5.10;99.90;;;;;;4991609;28;20399;-79
2022/12/01 08:27:38;;;;;;;55.03;36.87;;;5.20;99.90;;;;;;5006504;28;20030;-79
2022/12/01 08:30:05;;;;;;;61.63;34.93;;;5.10;99.90;;;;;;5001237;28;20201;-79
2022/12/01 08:32:31;;;;;;;66.50;35.67;;;5.20;99.90;;;;;;5008224;28;20053;-80
2022/12/01 08:34:57;;;;;;;61.20;35.97;;;5.20;99.90;;;;;;5008860;28;20026;-79
2022/12/01 08:37:23;;;;;;;64.47;36.63;;;5.20;99.90;;;;;;4991693;28;20045;-80
2022/12/01 08:39:49;;;;;;;64.97;36.10;;;5.20;99.90;;;;;;4975788;28;20518;-80
2022/12/01 08:42:16;;;;;;;63.90;36.40;;;5.30;99.90;;;;;;4992123;28;20042;-79
2022/12/01 08:44:42;;;;;;;71.67;37.23;;;5.30;99.90;;;;;;5008018;28;20612;-79
2022/12/01 08:47:08;;;;;;;68.00;38.10;;;5.30;99.90;;;;;;4991183;28;20034;-79
2022/12/01 08:49:34;;;;;;;75.00;39.17;;;5.30;99.90;;;;;;4993188;28;20471;-79
2022/12/01 08:52:00;;;;;;;72.57;37.33;;;5.40;99.90;;;;;;4990734;28;20034;-78
2022/12/01 08:54:26;;;;;;;66.90;36.10;;;5.40;99.90;;;;;;4974029;28;20407;-78
2022/12/01 08:56:52;;;;;;;72.93;38.40;;;5.50;99.90;;;;;;4971310;28;20034;-79
2022/12/01 08:59:18;;;;;;;69.30;39.43;;;5.50;99.90;;;;;;4979474;28;20431;-78
2022/12/01 09:01:53;;;;;;;64.90;35.70;;;5.50;99.90;;;;;;4991104;28;20034;-80
2022/12/01 09:04:21;;;;;;;66.37;37.60;;;5.50;99.90;;;;;;4992994;28;20038;-79
2022/12/01 09:06:47;;;;;;;69.00;38.30;;;5.60;99.90;;;;;;4928119;28;20043;-83
2022/12/01 09:09:24;;;;;;;57.80;34.43;;;5.90;99.90;;;;;;4958173;28;20488;-84
2022/12/01 09:11:51;;;;;;;66.63;38.23;;;6.10;99.90;;;;;;4958244;28;20035;-83
2022/12/01 09:14:17;;;;;;;54.83;35.60;;;6.10;99.90;;;;;;4939672;28;20058;-85
2022/12/01 09:16:45;;;;;;;46.23;29.40;;;6.00;99.90;;;;;;4980038;28;20030;-80
2022/12/01 09:19:11;;;;;;;54.63;28.50;;;6.00;99.90;;;;;;4998302;28;20022;-79
2022/12/01 09:21:37;;;;;;;65.20;33.70;;;5.90;99.90;;;;;;4988626;28;20057;-82
2022/12/01 09:24:05;;;;;;;56.17;33.17;;;6.00;99.90;;;;;;4956224;28;20047;-83
2022/12/01 09:26:31;;;;;;;54.47;32.13;;;6.00;99.90;;;;;;4967994;28;20051;-83
2022/12/01 09:29:07;;;;;;;56.43;32.23;;;6.10;99.90;;;;;;4989259;28;20045;-83
2022/12/01 09:31:33;;;;;;;54.93;31.50;;;6.10;99.90;;;;;;5006702;28;20018;-82
2022/12/01 09:34:01;;;;;;;56.10;31.33;;;6.20;99.90;;;;;;4990184;28;20034;-82
2022/12/01 09:36:28;;;;;;;48.83;28.33;;;6.20;99.90;;;;;;4984894;28;20054;-82
2022/12/01 09:38:54;;;;;;;25.23;18.83;;;6.30;99.90;;;;;;4965731;28;20054;-82
2022/12/01 09:41:22;;;;;;;50.77;29.77;;;6.30;99.90;;;;;;4987145;28;20030;-82
2022/12/01 09:44:04;;;;;;;50.13;29.53;;;6.30;99.90;;;;;;5007808;28;20030;-82
2022/12/01 09:46:40;;;;;;;49.47;27.63;;;6.40;99.90;;;;;;5005507;28;20034;-81
2022/12/01 09:49:12;;;;;;;52.37;30.07;;;6.50;99.90;;;;;;4989288;28;20041;-81
2022/12/01 09:51:38;;;;;;;51.67;29.50;;;6.60;99.90;;;;;;5006370;28;20022;-79
2022/12/01 09:54:04;;;;;;;50.87;29.30;;;6.60;99.90;;;;;;4992604;28;20375;-80
2022/12/01 09:56:32;;;;;;;49.13;29.63;;;6.70;99.90;;;;;;4976382;28;20412;-79
2022/12/01 09:59:06;;;;;;;49.23;30.40;;;6.70;99.90;;;;;;4983242;28;20065;-80
2022/12/01 10:01:36;;;;;;;30.97;21.57;;;6.80;99.90;;;;;;5008917;28;20510;-79
2022/12/01 10:04:15;;;;;;;43.08;25.73;;;6.80;99.90;;;;;;4979156;28;20018;-81
2022/12/01 10:06:48;;;;;;;34.17;23.93;;;6.90;99.90;;;;;;5021739;28;20511;-80
2022/12/01 10:09:29;;;;;;;39.87;26.47;;;6.90;99.90;;;;;;5011093;28;20019;-80
2022/12/01 10:11:59;;;;;;;41.25;26.23;;;6.90;99.90;;;;;;4963700;28;20050;-81
2022/12/01 10:14:27;;;;;;;32.37;22.20;;;7.00;99.90;;;;;;4961820;28;20034;-80
2022/12/01 10:16:53;;;;;;;40.90;26.80;;;7.00;99.90;;;;;;4988769;28;20041;-80
2022/12/01 10:19:31;;;;;;;25.73;20.07;;;7.00;99.90;;;;;;4991777;28;20518;-80
2022/12/01 10:22:12;;;;;;;34.47;23.63;;;7.10;99.90;;;;;;5007030;28;20030;-80
2022/12/01 10:24:43;;;;;;;38.95;26.95;;;7.20;99.90;;;;;;4995923;28;20037;-81
2022/12/01 10:27:09;;;;;;;;;;;7.20;99.90;;;;;;4976747;28;20047;-82
2022/12/01 10:30:09;;;;;;;16.17;14.70;;;7.20;99.90;;;;;;5026165;28;19947;-81
2022/12/01 10:32:41;;;;;;;37.23;24.00;;;7.30;99.90;;;;;;4935706;29;20032;-80
2022/12/01 10:35:11;;;;;;;22.77;19.53;;;7.20;99.90;;;;;;4935674;29;20416;-81
2022/12/01 10:37:38;;;;;;;35.60;19.47;;;7.20;99.90;;;;;;4902187;29;20132;-80
2022/12/01 10:40:05;;;;;;;39.63;26.63;;;7.30;99.90;;;;;;4921910;29;20054;-80
2022/12/01 10:42:47;;;;;;;32.80;23.77;;;7.30;99.90;;;;;;4934161;29;20195;-80
2022/12/01 10:45:15;;;;;;;28.97;20.50;;;7.40;99.90;;;;;;4915279;28;20143;-79
2022/12/01 10:48:18;;;;;;;30.23;21.20;;;7.40;99.90;;;;;;4935390;29;20079;-80
2022/12/01 10:50:46;;;;;;;25.03;18.07;;;7.40;99.90;;;;;;4933313;29;20032;-80
2022/12/01 10:53:29;;;;;;;37.93;26.83;;;7.50;99.90;;;;;;4917746;29;20031;-79
2022/12/01 10:56:02;;;;;;;35.37;24.43;;;7.50;99.90;;;;;;4918692;29;20043;-80
2022/12/01 10:58:29;;;;;;;38.93;25.43;;;7.50;99.90;;;;;;4907317;29;20136;-80
2022/12/01 11:01:05;;;;;;;29.10;20.20;;;7.50;99.90;;;;;;4914230;29;20099;-79
2022/12/01 11:03:32;;;;;;;34.33;25.07;;;7.40;99.90;;;;;;4903493;29;20043;-80
2022/12/01 11:06:00;;;;;;;35.87;25.17;;;7.40;99.90;;;;;;4918830;29;20039;-79
2022/12/01 11:08:40;;;;;;;33.03;21.10;;;7.40;99.90;;;;;;4960692;28;20046;-80
2022/12/01 11:11:23;;;;;;;39.47;25.60;;;7.50;99.90;;;;;;4994032;28;20041;-80
2022/12/01 11:13:49;;;;;;;35.67;25.00;;;7.60;99.90;;;;;;4977711;28;20459;-79
2022/12/01 11:16:33;;;;;;;28.95;22.25;;;7.60;99.90;;;;;;4965300;28;20030;-79
2022/12/01 11:19:20;;;;;;;31.77;23.83;;;7.70;99.90;;;;;;4994654;28;20487;-80
2022/12/01 11:21:48;;;;;;;31.63;23.27;;;7.70;99.90;;;;;;5026458;28;20031;-80
2022/12/01 11:24:41;;;;;;;26.13;20.70;;;7.70;99.90;;;;;;5025563;28;20475;-80
2022/12/01 11:27:28;;;;;;;34.97;25.63;;;7.70;99.90;;;;;;4991894;28;20046;-80
2022/12/01 11:29:56;;;;;;;29.07;23.43;;;7.70;99.90;;;;;;5009405;28;20384;-80
2022/12/01 11:32:27;;;;;;;38.43;28.17;;;7.70;99.90;;;;;;5008725;28;20392;-79
2022/12/01 11:35:17;;;;;;;21.67;18.03;;;7.70;99.90;;;;;;5008786;28;20372;-79
2022/12/01 11:37:54;;;;;;;21.23;18.63;;;7.60;99.90;;;;;;4969602;28;20412;-79
2022/12/01 11:40:25;;;;;;;17.15;15.20;;;7.60;99.90;;;;;;5000639;28;20053;-80
2022/12/01 11:42:58;;;;;;;28.27;19.92;;;7.70;99.90;;;;;;4992483;28;20029;-79
2022/12/01 11:45:31;;;;;;;35.70;19.35;;;7.70;99.90;;;;;;4986841;28;20379;-79
2022/12/01 11:48:16;;;;;;;31.40;23.17;;;7.70;99.90;;;;;;4992697;28;20395;-80
2022/12/01 11:50:43;;;;;;;23.33;19.27;;;7.70;99.90;;;;;;4992593;28;20041;-79
2022/12/01 11:53:29;;;;;;;30.37;23.00;;;7.70;99.90;;;;;;4978555;28;20042;-79
2022/12/01 11:56:14;;;;;;;21.10;18.13;;;7.70;99.90;;;;;;4965234;28;20045;-80
2022/12/01 11:58:44;;;;;;;31.23;22.40;;;7.70;99.90;;;;;;4984150;28;20018;-79
2022/12/01 12:01:33;;;;;;;32.33;22.83;;;7.70;99.90;;;;;;4971816;28;20042;-80
2022/12/01 12:04:08;;;;;;;30.87;22.97;;;7.70;99.90;;;;;;5004309;28;20041;-80
2022/12/01 12:07:00;;;;;;;26.02;20.58;;;7.70;99.90;;;;;;5006114;28;20034;-80
2022/12/01 12:10:01;;;;;;;31.27;23.57;;;7.70;99.90;;;;;;4990072;28;20387;-80
2022/12/01 12:12:45;;;;;;;33.83;23.63;;;7.80;99.90;;;;;;4997375;28;20145;-80
2022/12/01 12:15:27;;;;;;;26.50;20.43;;;7.80;99.90;;;;;;4974139;28;20057;-80
2022/12/01 12:17:58;;;;;;;29.60;21.77;;;7.80;99.90;;;;;;5005781;28;20033;-80
2022/12/01 12:20:35;;;;;;;36.00;23.40;;;7.90;99.90;;;;;;4990052;28;20055;-80
2022/12/01 12:23:13;;;;;;;30.27;23.67;;;7.90;99.90;;;;;;4991176;28;20026;-80
2022/12/01 12:26:12;;;;;;;29.85;21.30;;;8.00;99.90;;;;;;4982140;28;20378;-80
2022/12/01 12:28:58;;;;;;;30.98;23.65;;;8.00;99.90;;;;;;4987874;28;20668;-79
2022/12/01 12:31:45;;;;;;;25.58;19.65;;;7.90;99.90;;;;;;4989429;28;20042;-80
2022/12/01 12:34:42;;;;;;;30.77;22.77;;;7.90;99.90;;;;;;4989912;28;20034;-80
2022/12/01 12:37:42;;;;;;;30.57;23.47;;;7.90;99.90;;;;;;4990036;28;20034;-80
2022/12/01 12:40:11;;;;;;;31.77;24.83;;;8.00;99.90;;;;;;4988145;28;20062;-80
2022/12/01 12:43:18;;;;;;;28.07;22.10;;;8.00;99.90;;;;;;4987627;28;20154;-80
2022/12/01 12:46:00;;;;;;;26.65;20.33;;;7.90;99.90;;;;;;4951071;28;20028;-79
2022/12/01 12:48:43;;;;;;;35.85;23.40;;;7.90;99.90;;;;;;4953560;28;20141;-80
2022/12/01 12:51:24;;;;;;;32.53;24.23;;;7.90;99.90;;;;;;4975072;28;20042;-79
2022/12/01 12:54:00;;;;;;;29.05;23.17;;;8.00;99.90;;;;;;4948964;28;20042;-80
2022/12/01 12:56:26;;;;;;;33.53;25.17;;;8.00;99.90;;;;;;4955775;28;20041;-80
2022/12/01 12:59:10;;;;;;;34.13;25.25;;;8.00;99.90;;;;;;4972309;28;20034;-80
2022/12/01 13:01:38;;;;;;;37.30;27.00;;;8.10;99.90;;;;;;4973956;28;20462;-80